createdAt,value
2023-02-07T00:01:26.998Z,1.40
2023-02-07T00:03:56.530Z,1.30
2023-02-07T00:06:26.638Z,1.30
2023-02-07T00:08:54.723Z,1.30
2023-02-07T00:11:23.247Z,1.40
2023-02-07T00:13:53.307Z,1.30
2023-02-07T00:16:20.909Z,1.40
2023-02-07T00:18:48.354Z,1.80
2023-02-07T00:21:18.189Z,1.80
2023-02-07T00:23:46.339Z,1.60
2023-02-07T00:26:14.902Z,1.90
2023-02-07T00:28:42.009Z,1.80
2023-02-07T00:31:14.939Z,1.80
2023-02-07T00:33:43.446Z,1.80
2023-02-07T00:36:13.246Z,1.80
2023-02-07T00:38:40.320Z,1.90
2023-02-07T00:41:07.968Z,1.90
2023-02-07T00:43:35.644Z,2.00
2023-02-07T00:46:05.509Z,2.00
2023-02-07T00:48:33.388Z,2.00
2023-02-07T00:51:01.369Z,2.30
2023-02-07T00:53:29.546Z,2.00
2023-02-07T00:55:56.719Z,1.90
2023-02-07T00:58:24.127Z,2.00
2023-02-07T01:00:51.522Z,1.80
2023-02-07T01:03:18.844Z,1.70
2023-02-07T01:05:45.703Z,1.50
2023-02-07T01:08:13.274Z,1.40
2023-02-07T01:10:42.705Z,1.30
2023-02-07T01:13:10.224Z,1.40
2023-02-07T01:15:42.509Z,1.10
2023-02-07T01:18:10.149Z,1.10
2023-02-07T01:20:37.336Z,1.00
2023-02-07T01:23:05.618Z,0.90
2023-02-07T01:25:32.911Z,0.80
2023-02-07T01:27:59.797Z,0.80
2023-02-07T01:30:26.866Z,0.80
2023-02-07T01:32:53.782Z,0.80
2023-02-07T01:35:20.883Z,0.80
2023-02-07T01:37:47.788Z,0.80
2023-02-07T01:40:15.607Z,0.80
2023-02-07T01:42:42.678Z,0.60
2023-02-07T01:45:09.945Z,0.60
2023-02-07T01:47:37.606Z,0.60
2023-02-07T01:50:05.481Z,1.00
2023-02-07T01:52:37.672Z,0.60
2023-02-07T01:55:10.454Z,0.60
2023-02-07T01:57:38.240Z,0.60
2023-02-07T02:00:05.870Z,0.50
2023-02-07T02:02:35.190Z,0.50
2023-02-07T02:05:02.832Z,0.50
2023-02-07T02:07:32.805Z,0.50
2023-02-07T02:10:00.635Z,0.50
2023-02-07T02:12:33.279Z,0.50
2023-02-07T02:15:13.719Z,0.40
2023-02-07T02:18:16.036Z,0.30
2023-02-07T02:21:44.745Z,0.20
2023-02-07T02:24:27.859Z,0.10
2023-02-07T02:27:06.220Z,0.10
2023-02-07T02:30:02.776Z,0.10
2023-02-07T02:33:06.600Z,0.10
2023-02-07T02:35:56.080Z,0.00
2023-02-07T02:38:45.297Z,0.00
2023-02-07T02:41:18.890Z,0.00
2023-02-07T02:43:50.091Z,0.10
2023-02-07T02:46:20.142Z,-0.10
2023-02-07T02:48:48.139Z,-0.10
2023-02-07T02:51:14.991Z,-0.10
2023-02-07T02:53:52.772Z,-0.10
2023-02-07T02:56:47.091Z,-0.10
2023-02-07T02:59:43.872Z,-0.10
2023-02-07T03:02:48.947Z,-0.10
2023-02-07T03:05:38.853Z,-0.10
2023-02-07T03:08:21.219Z,-0.20
2023-02-07T03:11:00.316Z,-0.10
2023-02-07T03:13:30.014Z,-0.10
2023-02-07T03:16:40.038Z,-0.10
2023-02-07T03:19:15.047Z,-0.10
2023-02-07T03:21:51.528Z,-0.10
2023-02-07T03:24:32.145Z,-0.10
2023-02-07T03:27:02.508Z,0.00
2023-02-07T03:29:31.927Z,-0.10
2023-02-07T03:32:02.575Z,-0.10
2023-02-07T03:35:00.874Z,-0.10
2023-02-07T03:37:32.627Z,-0.10
2023-02-07T03:39:59.642Z,-0.10
2023-02-07T03:42:30.089Z,-0.10
2023-02-07T03:44:58.903Z,0.20
2023-02-07T03:47:26.839Z,-0.20
2023-02-07T03:49:54.199Z,-0.20
2023-02-07T03:52:21.349Z,-0.20
2023-02-07T03:54:48.347Z,-0.20
2023-02-07T03:57:15.294Z,-0.20
2023-02-07T03:59:42.250Z,-0.20
2023-02-07T04:02:09.255Z,-0.10
2023-02-07T04:04:36.425Z,-0.30
2023-02-07T04:07:03.366Z,-0.30
2023-02-07T04:09:30.401Z,-0.30
2023-02-07T04:11:57.464Z,-0.40
2023-02-07T04:14:24.425Z,-0.40
2023-02-07T04:16:51.336Z,-0.20
2023-02-07T04:19:18.402Z,-0.40
2023-02-07T04:21:45.540Z,-0.40
2023-02-07T04:24:13.324Z,-0.10
2023-02-07T04:26:40.252Z,-0.40
2023-02-07T04:29:07.524Z,-0.40
2023-02-07T04:31:34.508Z,-0.40
2023-02-07T04:34:01.602Z,-0.30
2023-02-07T04:36:29.900Z,-0.50
2023-02-07T04:38:57.087Z,-0.30
2023-02-07T04:41:24.629Z,-0.50
2023-02-07T04:43:51.589Z,-0.30
2023-02-07T04:46:18.488Z,-0.60
2023-02-07T04:48:45.479Z,-0.60
2023-02-07T04:51:12.453Z,-0.60
2023-02-07T04:53:39.370Z,-0.60
2023-02-07T04:56:06.444Z,-0.60
2023-02-07T04:58:33.408Z,-0.60
2023-02-07T05:01:00.335Z,-0.60
2023-02-07T05:03:27.253Z,-0.60
2023-02-07T05:05:55.304Z,-0.60
2023-02-07T05:08:22.933Z,-0.60
2023-02-07T05:10:54.917Z,-0.60
2023-02-07T05:13:22.659Z,-0.60
2023-02-07T05:15:49.901Z,-0.60
2023-02-07T05:18:17.233Z,-0.60
2023-02-07T05:20:44.296Z,-0.40
2023-02-07T05:23:11.153Z,-0.60
2023-02-07T05:25:38.490Z,-0.60
2023-02-07T05:28:05.684Z,-0.70
2023-02-07T05:30:32.737Z,-0.70
2023-02-07T05:33:08.478Z,-0.70
2023-02-07T05:35:44.587Z,-0.70
2023-02-07T05:38:14.394Z,-0.70
2023-02-07T05:40:42.672Z,-0.70
2023-02-07T05:43:10.129Z,-0.70
2023-02-07T05:45:37.786Z,-0.60
2023-02-07T05:48:05.173Z,-0.70
2023-02-07T05:50:32.416Z,-0.70
2023-02-07T05:52:59.254Z,-0.70
2023-02-07T05:55:26.155Z,-0.70
2023-02-07T05:57:53.007Z,-0.70
2023-02-07T06:00:20.589Z,-0.70
2023-02-07T06:02:47.569Z,-0.70
2023-02-07T06:05:17.496Z,-0.70
2023-02-07T06:07:44.627Z,-0.80
2023-02-07T06:10:12.691Z,-0.80
2023-02-07T06:12:39.836Z,-0.80
2023-02-07T06:15:07.283Z,-0.80
2023-02-07T06:17:34.128Z,-0.90
2023-02-07T06:20:01.649Z,-1.00
2023-02-07T06:22:28.555Z,-1.00
2023-02-07T06:24:55.465Z,-1.00
2023-02-07T06:27:22.346Z,-1.00
2023-02-07T06:29:49.268Z,-1.00
2023-02-07T06:32:16.135Z,-1.00
2023-02-07T06:34:43.022Z,-1.10
2023-02-07T06:37:09.867Z,-1.10
2023-02-07T06:39:36.694Z,-0.80
2023-02-07T06:42:05.894Z,-1.10
2023-02-07T06:44:33.613Z,-1.10
2023-02-07T06:47:01.156Z,-1.10
2023-02-07T06:49:28.225Z,-1.10
2023-02-07T06:51:55.257Z,-1.10
2023-02-07T06:57:23.473Z,-1.10
2023-02-07T07:02:41.268Z,-1.10
2023-02-07T07:05:09.613Z,-1.00
2023-02-07T07:07:39.664Z,-1.10
2023-02-07T07:19:40.320Z,-1.10
2023-02-07T07:34:09.066Z,-0.90
2023-02-07T07:36:38.284Z,-0.80
2023-02-07T07:39:08.921Z,-0.90
2023-02-07T07:41:37.492Z,-0.90
2023-02-07T07:50:28.569Z,-0.60
2023-02-07T08:02:11.550Z,-0.90
2023-02-07T08:29:53.070Z,-0.20
2023-02-07T08:38:42.768Z,-0.10
2023-02-07T08:53:09.084Z,0.10
2023-02-07T08:55:49.987Z,0.20
2023-02-07T09:10:50.073Z,0.50
2023-02-07T09:13:21.450Z,0.10
2023-02-07T09:18:44.726Z,0.50
2023-02-07T09:21:20.204Z,0.50
2023-02-07T09:23:56.872Z,0.60
2023-02-07T09:26:26.855Z,0.80
2023-02-07T09:28:57.900Z,0.90
2023-02-07T09:31:29.178Z,0.70
2023-02-07T09:33:57.337Z,0.90
2023-02-07T09:36:33.476Z,0.80
2023-02-07T09:39:02.824Z,1.00
2023-02-07T09:45:37.116Z,1.00
2023-02-07T09:48:25.757Z,1.00
2023-02-07T09:54:23.692Z,1.10
2023-02-07T09:57:00.048Z,1.10
2023-02-07T09:59:47.177Z,1.20
2023-02-07T10:02:43.561Z,1.20
2023-02-07T10:05:25.889Z,1.30
2023-02-07T10:07:53.067Z,1.30
2023-02-07T10:10:33.052Z,1.30
2023-02-07T10:13:17.776Z,1.40
2023-02-07T10:16:09.505Z,1.40
2023-02-07T10:18:50.048Z,1.40
2023-02-07T10:21:40.468Z,1.50
2023-02-07T10:24:39.426Z,1.50
2023-02-07T10:27:16.047Z,1.50
2023-02-07T10:30:28.705Z,1.60
2023-02-07T10:33:06.750Z,1.60
2023-02-07T10:35:40.090Z,1.60
2023-02-07T10:38:42.300Z,1.60
2023-02-07T10:41:36.416Z,1.60
2023-02-07T10:44:15.312Z,1.70
2023-02-07T10:46:45.900Z,1.70
2023-02-07T10:49:31.701Z,1.70
2023-02-07T10:52:26.895Z,1.80
2023-02-07T10:55:06.278Z,1.80
2023-02-07T11:00:33.933Z,2.00
2023-02-07T11:03:21.548Z,1.90
2023-02-07T11:06:04.965Z,1.90
2023-02-07T11:08:34.809Z,1.90
2023-02-07T11:11:19.734Z,1.90
2023-02-07T11:13:54.723Z,2.00
2023-02-07T11:16:24.685Z,2.00
2023-02-07T11:18:55.925Z,2.10
2023-02-07T11:21:24.983Z,2.10
2023-02-07T11:23:58.270Z,2.10
2023-02-07T11:26:25.486Z,2.10
2023-02-07T11:29:06.980Z,2.20
2023-02-07T11:31:43.205Z,2.20
2023-02-07T11:34:48.383Z,2.30
2023-02-07T11:37:26.137Z,2.30
2023-02-07T11:40:17.417Z,2.40
2023-02-07T11:42:45.394Z,2.60
2023-02-07T11:45:17.156Z,2.50
2023-02-07T11:47:49.024Z,2.60
2023-02-07T11:50:30.940Z,2.60
2023-02-07T11:53:00.436Z,2.70
2023-02-07T11:55:37.234Z,2.70
2023-02-07T11:58:23.815Z,2.80
2023-02-07T12:00:52.931Z,2.80
2023-02-07T12:03:27.848Z,2.80
2023-02-07T12:05:58.484Z,2.90
2023-02-07T12:08:31.138Z,2.90
2023-02-07T12:11:06.399Z,3.00
2023-02-07T12:13:51.048Z,2.80
2023-02-07T12:16:30.348Z,3.10
2023-02-07T12:19:10.464Z,3.10
2023-02-07T12:21:47.419Z,3.10
2023-02-07T12:24:24.917Z,3.20
2023-02-07T12:27:18.165Z,3.10
2023-02-07T12:30:04.474Z,3.10
2023-02-07T12:33:05.718Z,3.10
2023-02-07T12:36:03.485Z,3.10
2023-02-07T12:38:40.914Z,3.10
2023-02-07T12:41:22.689Z,3.00
2023-02-07T12:44:23.704Z,3.00
2023-02-07T12:47:01.512Z,3.10
2023-02-07T12:49:46.533Z,3.10
2023-02-07T12:52:28.349Z,3.10
2023-02-07T12:55:21.078Z,3.20
2023-02-07T12:58:06.274Z,3.20
2023-02-07T13:00:51.633Z,3.20
2023-02-07T13:03:47.498Z,3.20
2023-02-07T13:06:20.265Z,3.30
2023-02-07T13:08:56.148Z,3.30
2023-02-07T13:11:45.686Z,3.30
2023-02-07T13:14:26.334Z,3.30
2023-02-07T13:17:20.464Z,3.30
2023-02-07T13:20:00.675Z,3.30
2023-02-07T13:22:34.426Z,3.30
2023-02-07T13:25:03.182Z,3.30
2023-02-07T13:27:31.000Z,3.40
2023-02-07T13:30:01.984Z,3.50
2023-02-07T13:32:28.969Z,3.40
2023-02-07T13:35:04.994Z,3.40
2023-02-07T13:37:47.726Z,3.50
2023-02-07T13:40:35.899Z,3.50
2023-02-07T13:43:19.992Z,3.50
2023-02-07T13:46:08.052Z,3.50
2023-02-07T13:48:43.402Z,3.60
2023-02-07T13:51:37.934Z,3.90
2023-02-07T13:54:04.883Z,3.60
2023-02-07T13:56:53.037Z,3.90
2023-02-07T13:59:41.285Z,3.60
2023-02-07T14:02:19.182Z,3.70
2023-02-07T14:05:10.772Z,3.80
2023-02-07T14:07:39.389Z,3.70
2023-02-07T14:10:08.782Z,3.60
2023-02-07T14:12:40.117Z,3.30
2023-02-07T14:15:30.511Z,3.70
2023-02-07T14:18:06.413Z,3.70
2023-02-07T14:20:36.758Z,3.70
2023-02-07T14:23:15.210Z,3.60
2023-02-07T14:25:44.172Z,3.60
2023-02-07T14:28:21.753Z,3.90
2023-02-07T14:30:48.762Z,3.60
2023-02-07T14:33:34.487Z,3.60
2023-02-07T14:36:20.599Z,3.60
2023-02-07T14:39:20.489Z,3.50
2023-02-07T14:41:49.933Z,3.50
2023-02-07T14:44:34.233Z,3.40
2023-02-07T14:50:22.433Z,3.60
2023-02-07T14:52:49.876Z,3.40
2023-02-07T14:55:27.415Z,3.40
2023-02-07T14:57:57.868Z,3.30
2023-02-07T15:00:50.008Z,3.30
2023-02-07T15:03:19.423Z,3.30
2023-02-07T15:05:52.435Z,3.50
2023-02-07T15:08:25.113Z,3.30
2023-02-07T15:10:59.947Z,3.60
2023-02-07T15:13:31.229Z,3.20
2023-02-07T15:16:05.761Z,3.20
2023-02-07T15:18:37.824Z,3.20
2023-02-07T15:21:05.215Z,3.10
2023-02-07T15:23:32.726Z,3.10
2023-02-07T15:26:07.341Z,3.00
2023-02-07T15:28:35.639Z,3.00
2023-02-07T15:31:10.435Z,3.00
2023-02-07T15:34:00.315Z,2.90
2023-02-07T15:36:35.308Z,2.90
2023-02-07T15:39:08.796Z,2.80
2023-02-07T15:41:35.880Z,2.80
2023-02-07T15:59:52.326Z,2.50
2023-02-07T16:02:32.073Z,2.40
2023-02-07T16:04:59.960Z,2.30
2023-02-07T16:07:27.922Z,2.30
2023-02-07T23:16:58.149Z,-1.10
2023-02-07T23:19:25.074Z,-1.10
2023-02-07T23:21:51.970Z,-1.00
2023-02-07T23:24:18.798Z,-1.10
2023-02-07T23:26:45.716Z,-1.10
2023-02-07T23:29:12.484Z,-1.10
2023-02-07T23:31:39.569Z,-1.10
2023-02-07T23:34:07.141Z,-0.70
2023-02-07T23:36:34.069Z,-1.10
2023-02-07T23:39:01.118Z,-1.10
2023-02-07T23:41:28.535Z,-1.10
2023-02-07T23:43:56.902Z,-1.10
2023-02-07T23:46:23.841Z,-1.20
2023-02-07T23:48:50.692Z,-1.20
2023-02-07T23:51:17.537Z,-1.30
2023-02-07T23:53:45.557Z,-1.30
2023-02-07T23:56:18.200Z,-1.30
2023-02-07T23:58:46.072Z,-1.30
